createdAt,value
2023-05-23T00:01:31.504Z,101976.06
2023-05-23T00:03:59.625Z,101974.88
2023-05-23T00:06:27.525Z,101980.06
2023-05-23T00:08:55.818Z,101989.56
2023-05-23T00:11:27.205Z,101987.84
2023-05-23T00:13:57.615Z,101993.56
2023-05-23T00:16:25.970Z,101993.16
2023-05-23T00:18:53.835Z,101992.03
2023-05-23T00:21:21.934Z,101995.47
2023-05-23T00:23:50.531Z,101998.59
2023-05-23T00:26:18.314Z,101999.94
2023-05-23T00:28:46.092Z,102001.06
2023-05-23T00:31:15.314Z,101993.16
2023-05-23T00:33:43.275Z,101984.50
2023-05-23T00:36:11.663Z,101998.50
2023-05-23T00:38:39.663Z,101997.50
2023-05-23T00:41:07.616Z,101987.44
2023-05-23T00:43:35.449Z,101994.03
2023-05-23T00:46:03.499Z,101997.75
2023-05-23T00:48:33.723Z,101994.47
2023-05-23T00:51:01.856Z,102004.78
2023-05-23T00:53:29.889Z,102017.41
2023-05-23T00:55:58.836Z,102011.84
2023-05-23T00:58:26.818Z,102013.97
2023-05-23T01:00:55.762Z,102018.00
2023-05-23T01:03:23.874Z,102005.09
2023-05-23T01:05:53.431Z,102017.41
2023-05-23T01:08:21.406Z,102013.47
2023-05-23T01:10:49.617Z,102010.16
2023-05-23T01:13:25.191Z,102015.25
2023-05-23T01:16:02.032Z,102017.84
2023-05-23T01:18:38.381Z,102013.88
2023-05-23T01:21:13.606Z,102016.06
2023-05-23T01:24:17.205Z,102022.78
2023-05-23T01:27:06.417Z,102024.34
2023-05-23T01:29:39.543Z,102022.66
2023-05-23T01:32:12.177Z,102014.66
2023-05-23T01:34:42.439Z,102010.84
2023-05-23T01:37:11.503Z,102002.06
2023-05-23T01:39:40.049Z,102013.47
2023-05-23T01:42:09.503Z,102012.44
2023-05-23T01:44:39.727Z,102017.31
2023-05-23T01:47:12.805Z,102020.88
2023-05-23T01:49:41.970Z,102016.75
2023-05-23T01:52:10.581Z,102021.94
2023-05-23T01:54:42.551Z,102015.06
2023-05-23T01:57:11.881Z,102023.25
2023-05-23T01:59:41.388Z,102023.41
2023-05-23T02:02:09.263Z,102017.50
2023-05-23T02:04:37.115Z,102026.91
2023-05-23T02:07:05.053Z,102022.13
2023-05-23T02:09:33.188Z,102017.06
2023-05-23T02:12:01.205Z,102032.50
2023-05-23T02:14:29.672Z,102025.59
2023-05-23T02:17:00.519Z,102023.31
2023-05-23T02:19:28.622Z,102031.22
2023-05-23T02:21:56.419Z,102020.38
2023-05-23T02:24:24.238Z,102011.16
2023-05-23T02:26:52.930Z,102022.97
2023-05-23T02:29:20.977Z,102014.19
2023-05-23T02:31:48.964Z,102030.31
2023-05-23T02:34:18.230Z,102034.38
2023-05-23T02:36:46.113Z,102038.66
2023-05-23T02:39:13.939Z,102040.50
2023-05-23T02:41:41.903Z,102056.63
2023-05-23T02:44:09.724Z,102058.06
2023-05-23T02:46:37.690Z,102066.28
2023-05-23T02:49:05.648Z,102056.47
2023-05-23T02:51:34.820Z,102057.81
2023-05-23T02:54:02.644Z,102064.13
2023-05-23T02:56:30.441Z,102058.91
2023-05-23T02:58:58.261Z,102059.44
2023-05-23T03:01:26.104Z,102057.97
2023-05-23T03:03:53.888Z,102058.75
2023-05-23T03:06:22.487Z,102063.41
2023-05-23T03:08:51.702Z,102072.88
2023-05-23T03:11:19.579Z,102062.22
2023-05-23T03:13:47.371Z,102073.38
2023-05-23T03:16:15.368Z,102065.34
2023-05-23T03:18:43.180Z,102065.94
2023-05-23T03:21:10.963Z,102053.25
2023-05-23T03:23:38.725Z,102069.38
2023-05-23T03:26:07.919Z,102067.91
2023-05-23T03:28:35.660Z,102071.38
2023-05-23T03:31:03.445Z,102071.50
2023-05-23T03:33:31.218Z,102072.88
2023-05-23T03:35:58.980Z,102068.56
2023-05-23T03:38:27.382Z,102070.56
2023-05-23T03:40:55.141Z,102069.78
2023-05-23T03:43:24.372Z,102069.91
2023-05-23T03:45:52.230Z,102076.09
2023-05-23T03:48:20.024Z,102077.09
2023-05-23T03:50:47.899Z,102083.59
2023-05-23T03:53:15.739Z,102087.19
2023-05-23T03:55:43.847Z,102089.44
2023-05-23T03:58:11.987Z,102087.78
2023-05-23T04:00:42.520Z,102087.72
2023-05-23T04:03:11.584Z,102100.34
2023-05-23T04:05:39.789Z,102098.66
2023-05-23T04:08:08.267Z,102102.34
2023-05-23T04:10:36.066Z,102107.56
2023-05-23T04:13:04.092Z,102105.34
2023-05-23T04:15:34.289Z,102108.38
2023-05-23T04:18:03.744Z,102109.09
2023-05-23T04:20:32.068Z,102115.56
2023-05-23T04:22:59.873Z,102123.25
2023-05-23T04:25:27.742Z,102120.78
2023-05-23T04:27:56.108Z,102122.03
2023-05-23T04:30:24.034Z,102103.41
2023-05-23T04:32:52.247Z,102121.00
2023-05-23T04:35:21.476Z,102126.56
2023-05-23T04:37:49.326Z,102121.63
2023-05-23T04:40:17.285Z,102137.38
2023-05-23T04:42:46.212Z,102132.56
2023-05-23T04:45:14.183Z,102141.59
2023-05-23T04:47:42.164Z,102144.94
2023-05-23T04:50:10.972Z,102147.03
2023-05-23T04:52:40.235Z,102146.81
2023-05-23T04:55:09.402Z,102155.00
2023-05-23T04:57:37.445Z,102162.06
2023-05-23T05:00:10.712Z,102168.38
2023-05-23T05:02:39.052Z,102170.09
2023-05-23T05:05:08.057Z,102163.66
2023-05-23T05:07:37.086Z,102179.53
2023-05-23T05:10:07.438Z,102175.81
2023-05-23T05:12:35.505Z,102189.16
2023-05-23T05:15:04.683Z,102176.53
2023-05-23T05:17:36.931Z,102172.06
2023-05-23T05:20:08.529Z,102188.81
2023-05-23T05:22:36.929Z,102188.19
2023-05-23T05:25:07.388Z,102197.25
2023-05-23T05:27:37.985Z,102191.53
2023-05-23T05:30:07.833Z,102148.56
2023-05-23T05:32:36.028Z,102187.44
2023-05-23T05:35:05.449Z,102200.31
2023-05-23T05:37:36.087Z,102197.38
2023-05-23T05:40:08.383Z,102199.31
2023-05-23T05:42:37.559Z,102192.53
2023-05-23T05:45:06.425Z,102198.09
2023-05-23T05:47:34.243Z,102210.50
2023-05-23T05:50:02.187Z,102217.09
2023-05-23T05:52:29.991Z,102220.78
2023-05-23T05:54:57.921Z,102220.66
2023-05-23T05:57:25.743Z,102231.47
2023-05-23T05:59:55.065Z,102236.91
2023-05-23T06:02:22.954Z,102235.78
2023-05-23T06:04:50.912Z,102227.50
2023-05-23T06:07:18.826Z,102232.31
2023-05-23T06:09:46.728Z,102227.72
2023-05-23T06:12:14.685Z,102239.13
2023-05-23T06:14:45.112Z,102241.22
2023-05-23T06:17:16.361Z,102244.56
2023-05-23T06:19:44.834Z,102232.81
2023-05-23T06:22:13.016Z,102245.06
2023-05-23T06:24:41.019Z,102250.78
2023-05-23T06:27:08.844Z,102243.34
2023-05-23T06:29:37.110Z,102243.22
2023-05-23T06:32:05.254Z,102243.56
2023-05-23T06:34:34.563Z,102263.78
2023-05-23T06:37:02.292Z,102242.22
2023-05-23T06:39:30.076Z,102255.47
2023-05-23T06:41:57.960Z,102258.31
2023-05-23T06:44:25.935Z,102252.75
2023-05-23T06:46:57.556Z,102236.75
2023-05-23T06:49:25.889Z,102252.03
2023-05-23T06:51:55.167Z,102249.66
2023-05-23T06:54:23.063Z,102246.03
2023-05-23T06:56:50.864Z,102255.09
2023-05-23T06:59:18.952Z,102259.91
2023-05-23T07:01:46.854Z,102269.72
2023-05-23T07:04:15.412Z,102267.97
2023-05-23T07:06:43.325Z,102266.97
2023-05-23T07:09:13.220Z,102255.31
2023-05-23T07:11:44.288Z,102269.72
2023-05-23T07:14:12.066Z,102263.56
2023-05-23T07:16:39.964Z,102271.13
2023-05-23T07:19:07.890Z,102264.19
2023-05-23T07:21:36.194Z,102276.97
2023-05-23T07:24:04.109Z,102281.66
2023-05-23T07:26:33.403Z,102272.81
2023-05-23T07:29:01.275Z,102284.94
2023-05-23T07:31:29.713Z,102284.75
2023-05-23T07:33:57.598Z,102271.06
2023-05-23T07:36:25.436Z,102289.75
2023-05-23T07:38:53.301Z,102274.28
2023-05-23T07:41:22.149Z,102286.44
2023-05-23T07:43:51.500Z,102277.88
2023-05-23T07:46:19.389Z,102282.78
2023-05-23T07:48:47.347Z,102282.31
2023-05-23T07:51:15.759Z,102296.91
2023-05-23T07:53:43.646Z,102300.72
2023-05-23T07:56:11.454Z,102296.75
2023-05-23T07:58:39.365Z,102299.31
2023-05-23T08:01:08.651Z,102302.41
2023-05-23T08:03:37.522Z,102306.09
2023-05-23T08:06:06.748Z,102305.28
2023-05-23T08:08:34.673Z,102304.34
2023-05-23T08:11:02.561Z,102302.38
2023-05-23T08:13:30.401Z,102308.09
2023-05-23T08:15:58.404Z,102310.41
2023-05-23T08:18:28.498Z,102312.25
2023-05-23T08:20:56.460Z,102300.38
2023-05-23T08:23:24.279Z,102303.28
2023-05-23T08:25:52.891Z,102305.75
2023-05-23T08:28:20.644Z,102316.63
2023-05-23T08:30:48.540Z,102313.56
2023-05-23T08:33:16.452Z,102316.25
2023-05-23T08:35:45.733Z,102319.16
2023-05-23T08:38:13.666Z,102319.78
2023-05-23T08:40:46.486Z,102312.34
2023-05-23T08:43:14.602Z,102315.16
2023-05-23T08:45:42.588Z,102327.13
2023-05-23T08:48:11.828Z,102316.13
2023-05-23T08:50:41.919Z,102309.53
2023-05-23T08:53:11.346Z,102321.97
2023-05-23T08:55:39.688Z,102316.50
2023-05-23T08:58:08.089Z,102315.50
2023-05-23T09:00:36.488Z,102324.56
2023-05-23T09:03:04.725Z,102317.56
2023-05-23T09:05:32.684Z,102320.38
2023-05-23T09:08:00.823Z,102324.00
2023-05-23T09:10:30.941Z,102336.69
2023-05-23T09:12:59.276Z,102339.13
2023-05-23T09:15:27.505Z,102342.59
2023-05-23T09:18:00.518Z,102345.03
2023-05-23T09:20:29.513Z,102352.09
2023-05-23T09:22:57.477Z,102332.56
2023-05-23T09:25:25.445Z,102346.25
2023-05-23T09:27:56.613Z,102340.44
2023-05-23T09:30:24.406Z,102354.59
2023-05-23T09:33:04.798Z,102355.06
2023-05-23T09:35:33.578Z,102337.50
2023-05-23T09:38:01.739Z,102347.84
2023-05-23T09:40:33.586Z,102347.00
2023-05-23T09:43:07.401Z,102339.75
2023-05-23T09:45:35.152Z,102346.00
2023-05-23T09:48:03.048Z,102341.88
2023-05-23T09:50:33.654Z,102342.47
2023-05-23T09:53:01.963Z,102343.19
2023-05-23T09:55:29.823Z,102344.88
2023-05-23T09:58:00.203Z,102350.44
2023-05-23T10:00:29.643Z,102346.81
2023-05-23T10:03:12.423Z,102347.72
2023-05-23T10:05:46.302Z,102353.94
2023-05-23T10:08:15.810Z,102348.47
2023-05-23T10:11:21.813Z,102347.31
2023-05-23T10:13:53.263Z,102351.22
2023-05-23T10:16:26.825Z,102350.06
2023-05-23T10:18:58.998Z,102349.88
2023-05-23T10:21:34.399Z,102354.38
2023-05-23T10:24:05.083Z,102359.69
2023-05-23T10:26:32.930Z,102361.16
2023-05-23T10:29:02.420Z,102356.38
2023-05-23T10:31:32.419Z,102359.59
2023-05-23T10:34:09.819Z,102364.56
2023-05-23T10:36:44.593Z,102371.06
2023-05-23T10:39:21.044Z,102378.13
2023-05-23T10:41:54.132Z,102371.91
2023-05-23T10:44:25.829Z,102355.44
2023-05-23T10:46:58.076Z,102370.66
2023-05-23T10:49:39.791Z,102363.47
2023-05-23T10:52:08.089Z,102362.59
2023-05-23T10:54:37.180Z,102363.97
2023-05-23T10:57:05.907Z,102353.69
2023-05-23T10:59:33.818Z,102365.56
2023-05-23T11:02:06.833Z,102362.38
2023-05-23T11:04:34.906Z,102363.25
2023-05-23T11:07:03.283Z,102364.69
2023-05-23T11:09:31.295Z,102362.81
2023-05-23T11:12:07.039Z,102367.13
2023-05-23T11:14:55.292Z,102366.38
2023-05-23T11:17:35.034Z,102371.63
2023-05-23T11:20:07.271Z,102369.47
2023-05-23T11:22:36.176Z,102369.31
2023-05-23T11:25:08.880Z,102376.56
2023-05-23T11:27:38.943Z,102361.28
2023-05-23T11:30:10.120Z,102368.50
2023-05-23T11:32:39.553Z,102365.63
2023-05-23T11:35:09.191Z,102385.97
2023-05-23T11:37:38.904Z,102384.69
2023-05-23T11:40:29.138Z,102389.88
2023-05-23T11:42:57.334Z,102388.53
2023-05-23T11:45:27.038Z,102376.53
2023-05-23T11:47:56.385Z,102375.81
2023-05-23T11:50:25.397Z,102386.25
2023-05-23T11:52:53.241Z,102397.47
2023-05-23T11:55:22.286Z,102380.56
2023-05-23T11:57:50.442Z,102385.88
2023-05-23T12:00:19.103Z,102378.09
2023-05-23T12:02:49.102Z,102380.75
2023-05-23T12:05:18.638Z,102382.03
2023-05-23T12:07:47.539Z,102376.34
2023-05-23T12:10:16.365Z,102399.63
2023-05-23T12:12:44.991Z,102388.53
2023-05-23T12:15:13.951Z,102389.25
2023-05-23T12:17:46.179Z,102386.47
2023-05-23T12:20:14.577Z,102395.44
2023-05-23T12:22:44.547Z,102398.19
2023-05-23T12:25:12.770Z,102381.50
2023-05-23T12:27:45.358Z,102403.81
2023-05-23T12:30:16.619Z,102400.69
2023-05-23T12:32:46.675Z,102390.91
2023-05-23T12:35:16.001Z,102399.25
2023-05-23T12:37:47.147Z,102389.81
2023-05-23T12:40:16.408Z,102393.63
2023-05-23T12:42:54.010Z,102388.25
2023-05-23T12:45:23.757Z,102376.66
2023-05-23T12:47:54.115Z,102390.28
2023-05-23T12:50:22.592Z,102387.78
2023-05-23T12:52:52.503Z,102372.91
2023-05-23T12:55:20.826Z,102381.28
2023-05-23T12:57:49.248Z,102386.81
2023-05-23T13:00:17.736Z,102391.13
2023-05-23T13:02:46.393Z,102382.28
2023-05-23T13:05:14.571Z,102394.06
2023-05-23T13:07:42.854Z,102377.91
2023-05-23T13:10:13.089Z,102396.25
2023-05-23T13:12:41.294Z,102393.50
2023-05-23T13:15:11.123Z,102400.81
2023-05-23T13:17:39.275Z,102391.31
2023-05-23T13:20:09.519Z,102386.44
2023-05-23T13:22:37.583Z,102388.84
2023-05-23T13:25:06.505Z,102389.13
2023-05-23T13:27:36.177Z,102400.38
2023-05-23T13:30:04.353Z,102397.94
2023-05-23T13:32:32.608Z,102397.19
2023-05-23T13:35:00.721Z,102393.78
2023-05-23T13:37:28.953Z,102395.34
2023-05-23T13:39:57.030Z,102393.63
2023-05-23T13:42:25.147Z,102395.03
2023-05-23T13:44:54.830Z,102395.06
2023-05-23T13:47:23.264Z,102393.50
2023-05-23T13:49:51.886Z,102388.44
2023-05-23T13:52:21.436Z,102395.34
2023-05-23T13:54:49.518Z,102398.25
2023-05-23T13:57:19.458Z,102395.78
2023-05-23T13:59:47.504Z,102397.72
2023-05-23T14:02:17.005Z,102391.63
2023-05-23T14:04:45.314Z,102398.63
2023-05-23T14:07:16.112Z,102397.81
2023-05-23T14:09:44.166Z,102395.09
2023-05-23T14:12:12.449Z,102399.69
2023-05-23T14:14:40.508Z,102402.44
2023-05-23T14:17:08.837Z,102397.69
2023-05-23T14:19:38.311Z,102388.72
2023-05-23T14:22:06.869Z,102393.66
2023-05-23T14:24:35.388Z,102401.41
2023-05-23T14:27:03.842Z,102395.22
2023-05-23T14:29:31.973Z,102398.25
2023-05-23T14:32:01.047Z,102397.38
2023-05-23T14:34:29.087Z,102387.00
2023-05-23T14:36:58.662Z,102394.91
2023-05-23T14:39:29.007Z,102395.06
2023-05-23T14:41:57.075Z,102393.50
2023-05-23T14:44:25.528Z,102393.31
2023-05-23T14:46:53.760Z,102390.31
2023-05-23T14:49:21.972Z,102402.91
2023-05-23T14:51:51.671Z,102403.44
2023-05-23T14:54:22.301Z,102401.28
2023-05-23T14:56:53.220Z,102404.47
2023-05-23T14:59:21.877Z,102395.09
2023-05-23T15:01:50.159Z,102406.63
2023-05-23T15:04:19.156Z,102403.56
2023-05-23T15:06:47.507Z,102409.06
2023-05-23T15:09:15.810Z,102405.16
2023-05-23T15:11:46.925Z,102416.72
2023-05-23T15:14:14.873Z,102406.91
2023-05-23T15:16:44.445Z,102410.81
2023-05-23T15:19:12.625Z,102406.06
2023-05-23T15:21:44.208Z,102411.78
2023-05-23T15:24:18.208Z,102407.47
2023-05-23T15:26:48.888Z,102414.63
2023-05-23T15:29:18.313Z,102423.53
2023-05-23T15:31:46.545Z,102422.25
2023-05-23T15:34:14.673Z,102417.38
2023-05-23T15:36:42.806Z,102419.47
2023-05-23T15:39:12.351Z,102411.63
2023-05-23T15:41:40.513Z,102423.00
2023-05-23T15:44:11.425Z,102413.31
2023-05-23T15:46:42.228Z,102417.13
2023-05-23T15:49:21.613Z,102426.69
2023-05-23T15:51:54.371Z,102420.63
2023-05-23T15:54:22.777Z,102425.91
2023-05-23T15:56:51.083Z,102421.56
2023-05-23T15:59:20.270Z,102418.38
2023-05-23T16:01:48.604Z,102426.94
2023-05-23T16:04:16.894Z,102422.19
2023-05-23T16:06:44.923Z,102427.66
2023-05-23T16:09:12.977Z,102427.88
2023-05-23T16:11:41.011Z,102430.38
2023-05-23T16:14:09.324Z,102429.16
2023-05-23T16:16:41.174Z,102426.81
2023-05-23T16:19:09.379Z,102425.59
2023-05-23T16:21:37.923Z,102432.56
2023-05-23T16:24:07.203Z,102423.16
2023-05-23T16:26:35.380Z,102423.00
2023-05-23T16:29:03.649Z,102417.75
2023-05-23T16:31:32.005Z,102405.63
2023-05-23T16:34:01.942Z,102414.63
2023-05-23T16:36:30.243Z,102407.00
2023-05-23T16:38:58.293Z,102418.28
2023-05-23T16:41:26.637Z,102419.56
2023-05-23T16:43:54.756Z,102408.13
2023-05-23T16:46:24.586Z,102413.75
2023-05-23T16:48:53.735Z,102417.97
2023-05-23T16:51:23.135Z,102415.78
2023-05-23T16:53:51.422Z,102408.38
2023-05-23T16:56:19.574Z,102414.75
2023-05-23T16:58:47.796Z,102408.38
2023-05-23T17:01:16.982Z,102414.16
2023-05-23T17:03:45.706Z,102423.72
2023-05-23T17:06:13.741Z,102416.59
2023-05-23T17:08:44.016Z,102412.88
2023-05-23T17:11:12.014Z,102415.91
2023-05-23T17:13:40.649Z,102410.69
2023-05-23T17:16:09.935Z,102414.19
2023-05-23T17:18:38.562Z,102406.84
2023-05-23T17:21:06.826Z,102411.72
2023-05-23T17:23:34.977Z,102424.25
2023-05-23T17:26:04.441Z,102425.81
2023-05-23T17:28:32.385Z,102437.34
2023-05-23T17:31:01.703Z,102429.81
2023-05-23T17:33:30.026Z,102420.56
2023-05-23T17:35:58.276Z,102422.72
2023-05-23T17:38:26.972Z,102430.94
2023-05-23T17:40:57.340Z,102432.50
2023-05-23T17:43:26.517Z,102431.81
2023-05-23T17:45:56.185Z,102436.63
2023-05-23T17:48:45.231Z,102435.41
2023-05-23T17:51:15.884Z,102440.19
2023-05-23T17:53:53.538Z,102437.97
2023-05-23T17:56:23.337Z,102430.75
2023-05-23T17:58:53.950Z,102436.75
2023-05-23T18:01:22.316Z,102410.00
2023-05-23T18:03:53.495Z,102429.06
2023-05-23T18:06:21.658Z,102448.78
2023-05-23T18:08:49.955Z,102439.63
2023-05-23T18:11:18.593Z,102452.34
2023-05-23T18:13:46.587Z,102453.50
2023-05-23T18:16:17.670Z,102448.03
2023-05-23T18:18:45.712Z,102446.72
2023-05-23T18:21:14.470Z,102440.88
2023-05-23T18:23:43.466Z,102452.28
2023-05-23T18:26:23.261Z,102455.81
2023-05-23T18:28:52.022Z,102458.06
2023-05-23T18:31:24.532Z,102463.53
2023-05-23T18:33:54.427Z,102465.78
2023-05-23T18:36:24.208Z,102458.09
2023-05-23T18:38:54.218Z,102459.94
2023-05-23T18:41:23.577Z,102447.91
2023-05-23T18:43:52.162Z,102458.81
2023-05-23T18:46:22.730Z,102460.34
2023-05-23T18:48:52.996Z,102459.69
2023-05-23T18:51:21.172Z,102463.31
2023-05-23T18:53:51.084Z,102455.44
2023-05-23T18:56:20.565Z,102462.78
2023-05-23T18:58:52.615Z,102464.22
2023-05-23T19:01:20.483Z,102473.44
2023-05-23T19:03:49.363Z,102474.00
2023-05-23T19:06:19.359Z,102486.03
2023-05-23T19:08:47.826Z,102485.69
2023-05-23T19:11:15.826Z,102490.28
2023-05-23T19:13:44.307Z,102490.44
2023-05-23T19:16:15.285Z,102491.78
2023-05-23T19:18:43.938Z,102501.72
2023-05-23T19:21:15.012Z,102498.44
2023-05-23T19:23:47.793Z,102493.84
2023-05-23T19:26:17.734Z,102497.16
2023-05-23T19:28:46.563Z,102495.22
2023-05-23T19:31:14.632Z,102505.13
2023-05-23T19:33:42.828Z,102500.91
2023-05-23T19:36:11.696Z,102492.13
2023-05-23T19:38:40.189Z,102493.50
2023-05-23T19:41:09.824Z,102500.97
2023-05-23T19:43:38.670Z,102506.06
2023-05-23T19:46:08.269Z,102505.94
2023-05-23T19:48:37.102Z,102516.09
2023-05-23T19:51:05.499Z,102511.19
2023-05-23T19:53:39.912Z,102521.13
2023-05-23T19:56:12.554Z,102531.28
2023-05-23T19:58:41.556Z,102527.88
2023-05-23T20:01:13.031Z,102541.38
2023-05-23T20:03:55.016Z,102539.50
2023-05-23T20:06:23.217Z,102542.88
2023-05-23T20:08:51.712Z,102545.03
2023-05-23T20:11:31.869Z,102548.97
2023-05-23T20:13:59.735Z,102546.06
2023-05-23T20:16:30.980Z,102550.00
2023-05-23T20:19:03.014Z,102550.88
2023-05-23T20:21:32.681Z,102554.16
2023-05-23T20:24:00.727Z,102546.31
2023-05-23T20:26:30.984Z,102544.03
2023-05-23T20:29:02.695Z,102541.34
2023-05-23T20:31:30.744Z,102542.00
2023-05-23T20:33:59.341Z,102543.41
2023-05-23T20:36:27.536Z,102537.38
2023-05-23T20:38:56.536Z,102539.44
2023-05-23T20:41:24.881Z,102525.59
2023-05-23T20:43:55.738Z,102531.09
2023-05-23T20:46:25.182Z,102525.44
2023-05-23T20:48:53.392Z,102527.66
2023-05-23T20:51:22.541Z,102540.19
2023-05-23T20:53:53.124Z,102532.03
2023-05-23T20:56:21.122Z,102523.78
2023-05-23T20:58:49.804Z,102513.34
2023-05-23T21:01:23.151Z,102529.00
2023-05-23T21:03:51.187Z,102528.13
2023-05-23T21:06:19.877Z,102526.53
2023-05-23T21:08:48.230Z,102528.25
2023-05-23T21:11:16.896Z,102533.38
2023-05-23T21:13:46.097Z,102534.25
2023-05-23T21:16:15.467Z,102529.91
2023-05-23T21:18:44.984Z,102535.13
2023-05-23T21:21:13.093Z,102533.59
2023-05-23T21:23:41.811Z,102536.78
2023-05-23T21:26:10.299Z,102540.59
2023-05-23T21:28:38.757Z,102541.34
2023-05-23T21:31:07.837Z,102532.63
2023-05-23T21:33:36.295Z,102539.69
2023-05-23T21:36:05.825Z,102543.09
2023-05-23T21:38:37.500Z,102540.03
2023-05-23T21:41:05.679Z,102529.03
2023-05-23T21:43:33.721Z,102532.28
2023-05-23T21:46:02.042Z,102533.38
2023-05-23T21:48:30.208Z,102536.66
2023-05-23T21:50:58.145Z,102528.69
2023-05-23T21:53:28.998Z,102538.16
2023-05-23T21:55:57.122Z,102530.09
2023-05-23T21:58:24.961Z,102527.06
2023-05-23T22:00:53.152Z,102535.78
2023-05-23T22:03:21.706Z,102539.69
2023-05-23T22:05:49.869Z,102539.91
2023-05-23T22:08:18.140Z,102549.91
2023-05-23T22:10:48.491Z,102545.19
2023-05-23T22:13:20.454Z,102537.69
2023-05-23T22:15:48.789Z,102530.06
2023-05-23T22:18:16.970Z,102530.97
2023-05-23T22:20:45.475Z,102518.78
2023-05-23T22:23:16.799Z,102521.81
2023-05-23T22:25:44.715Z,102527.25
2023-05-23T22:28:14.080Z,102529.66
2023-05-23T22:30:42.138Z,102521.91
2023-05-23T22:33:13.076Z,102524.63
2023-05-23T22:35:43.068Z,102527.66
2023-05-23T22:38:11.283Z,102526.50
2023-05-23T22:40:39.309Z,102529.22
2023-05-23T22:43:07.463Z,102518.78
2023-05-23T22:45:40.724Z,102526.81
2023-05-23T22:48:09.613Z,102531.28
2023-05-23T22:50:40.806Z,102534.00
2023-05-23T22:53:09.345Z,102522.34
2023-05-23T22:55:37.143Z,102538.13
2023-05-23T22:58:07.669Z,102543.56
2023-05-23T23:00:37.153Z,102530.84
2023-05-23T23:03:05.222Z,102539.88
2023-05-23T23:05:33.127Z,102532.50
2023-05-23T23:08:00.930Z,102532.50
2023-05-23T23:10:28.775Z,102537.03
2023-05-23T23:12:56.627Z,102526.06
2023-05-23T23:15:24.874Z,102527.34
2023-05-23T23:17:54.198Z,102539.69
2023-05-23T23:20:22.590Z,102533.34
2023-05-23T23:22:50.543Z,102531.50
2023-05-23T23:25:18.983Z,102532.19
2023-05-23T23:27:46.780Z,102538.59
2023-05-23T23:30:14.841Z,102540.53
2023-05-23T23:32:44.639Z,102536.06
2023-05-23T23:35:13.857Z,102540.66
2023-05-23T23:37:41.989Z,102540.75
2023-05-23T23:40:10.779Z,102541.84
2023-05-23T23:42:38.689Z,102541.84
2023-05-23T23:45:07.267Z,102535.63
2023-05-23T23:47:35.128Z,102530.31
2023-05-23T23:50:02.988Z,102525.06
2023-05-23T23:52:32.937Z,102524.28
2023-05-23T23:55:00.755Z,102519.19
2023-05-23T23:57:28.567Z,102515.59
2023-05-23T23:59:56.425Z,102513.94
